sensor_id;sensor_type;location;lat;lon;timestamp;P1;durP1;ratioP1;P2;durP2;ratioP2
22660;SDS011;11497;52.222;21.246;2022-12-08T00:01:31;16.50;;;8.73;;
22660;SDS011;11497;52.222;21.246;2022-12-08T00:04:00;15.45;;;8.57;;
22660;SDS011;11497;52.222;21.246;2022-12-08T00:09:25;12.27;;;7.72;;
22660;SDS011;11497;52.222;21.246;2022-12-08T00:14:43;14.35;;;7.50;;
22660;SDS011;11497;52.222;21.246;2022-12-08T00:17:13;14.85;;;8.05;;
22660;SDS011;11497;52.222;21.246;2022-12-08T00:19:42;11.85;;;6.53;;
22660;SDS011;11497;52.222;21.246;2022-12-08T00:22:11;12.20;;;6.85;;
22660;SDS011;11497;52.222;21.246;2022-12-08T00:24:40;10.88;;;5.93;;
22660;SDS011;11497;52.222;21.246;2022-12-08T00:27:11;12.52;;;6.22;;
22660;SDS011;11497;52.222;21.246;2022-12-08T00:29:44;15.63;;;6.30;;
22660;SDS011;11497;52.222;21.246;2022-12-08T00:32:12;12.80;;;5.63;;
22660;SDS011;11497;52.222;21.246;2022-12-08T00:34:40;7.95;;;5.60;;
22660;SDS011;11497;52.222;21.246;2022-12-08T00:37:07;10.50;;;5.75;;
22660;SDS011;11497;52.222;21.246;2022-12-08T00:39:35;10.48;;;5.45;;
22660;SDS011;11497;52.222;21.246;2022-12-08T00:42:03;8.23;;;5.38;;
22660;SDS011;11497;52.222;21.246;2022-12-08T00:44:40;9.98;;;5.53;;
22660;SDS011;11497;52.222;21.246;2022-12-08T00:47:10;8.95;;;5.18;;
22660;SDS011;11497;52.222;21.246;2022-12-08T00:49:39;10.88;;;5.65;;
22660;SDS011;11497;52.222;21.246;2022-12-08T00:52:07;9.80;;;5.40;;
22660;SDS011;11497;52.222;21.246;2022-12-08T00:54:35;7.90;;;5.28;;
22660;SDS011;11497;52.222;21.246;2022-12-08T00:57:03;10.00;;;5.60;;
22660;SDS011;11497;52.222;21.246;2022-12-08T00:59:31;9.88;;;5.63;;
22660;SDS011;11497;52.222;21.246;2022-12-08T01:01:59;9.30;;;5.43;;
22660;SDS011;11497;52.222;21.246;2022-12-08T01:04:27;9.55;;;5.45;;
22660;SDS011;11497;52.222;21.246;2022-12-08T01:06:55;8.05;;;5.03;;
22660;SDS011;11497;52.222;21.246;2022-12-08T01:09:22;8.48;;;5.28;;
22660;SDS011;11497;52.222;21.246;2022-12-08T01:11:50;11.15;;;5.45;;
22660;SDS011;11497;52.222;21.246;2022-12-08T01:14:18;9.27;;;5.10;;
22660;SDS011;11497;52.222;21.246;2022-12-08T01:16:46;9.27;;;4.88;;
22660;SDS011;11497;52.222;21.246;2022-12-08T01:19:15;9.60;;;4.93;;
22660;SDS011;11497;52.222;21.246;2022-12-08T01:21:44;7.32;;;4.80;;
22660;SDS011;11497;52.222;21.246;2022-12-08T01:24:13;9.75;;;4.32;;
22660;SDS011;11497;52.222;21.246;2022-12-08T01:26:43;8.40;;;4.40;;
22660;SDS011;11497;52.222;21.246;2022-12-08T01:29:11;10.52;;;4.82;;
22660;SDS011;11497;52.222;21.246;2022-12-08T01:31:39;7.78;;;4.43;;
22660;SDS011;11497;52.222;21.246;2022-12-08T01:34:07;7.32;;;4.22;;
22660;SDS011;11497;52.222;21.246;2022-12-08T01:36:36;7.65;;;4.15;;
22660;SDS011;11497;52.222;21.246;2022-12-08T01:39:09;7.15;;;4.13;;
22660;SDS011;11497;52.222;21.246;2022-12-08T01:41:43;5.00;;;3.63;;
22660;SDS011;11497;52.222;21.246;2022-12-08T01:46:43;9.10;;;3.90;;
22660;SDS011;11497;52.222;21.246;2022-12-08T01:54:14;6.93;;;3.70;;
22660;SDS011;11497;52.222;21.246;2022-12-08T01:56:48;6.28;;;3.72;;
22660;SDS011;11497;52.222;21.246;2022-12-08T01:59:26;6.10;;;3.70;;
22660;SDS011;11497;52.222;21.246;2022-12-08T02:01:56;5.80;;;3.10;;
22660;SDS011;11497;52.222;21.246;2022-12-08T02:04:24;4.82;;;3.35;;
22660;SDS011;11497;52.222;21.246;2022-12-08T02:06:52;8.63;;;3.45;;
22660;SDS011;11497;52.222;21.246;2022-12-08T02:09:20;5.47;;;3.42;;
22660;SDS011;11497;52.222;21.246;2022-12-08T02:11:48;6.80;;;3.45;;
22660;SDS011;11497;52.222;21.246;2022-12-08T02:14:16;8.68;;;3.63;;
22660;SDS011;11497;52.222;21.246;2022-12-08T02:19:35;6.57;;;3.63;;
22660;SDS011;11497;52.222;21.246;2022-12-08T02:22:30;8.80;;;3.63;;
22660;SDS011;11497;52.222;21.246;2022-12-08T02:25:24;7.70;;;3.50;;
22660;SDS011;11497;52.222;21.246;2022-12-08T02:31:01;6.20;;;3.47;;
22660;SDS011;11497;52.222;21.246;2022-12-08T02:42:29;7.35;;;3.33;;
22660;SDS011;11497;52.222;21.246;2022-12-08T02:45:09;6.15;;;3.53;;
22660;SDS011;11497;52.222;21.246;2022-12-08T02:47:45;5.28;;;3.80;;
22660;SDS011;11497;52.222;21.246;2022-12-08T02:50:14;9.43;;;3.80;;
22660;SDS011;11497;52.222;21.246;2022-12-08T02:58:44;8.05;;;3.80;;
22660;SDS011;11497;52.222;21.246;2022-12-08T03:09:34;6.22;;;4.43;;
22660;SDS011;11497;52.222;21.246;2022-12-08T03:14:46;7.00;;;4.40;;
22660;SDS011;11497;52.222;21.246;2022-12-08T03:19:47;6.57;;;4.40;;
22660;SDS011;11497;52.222;21.246;2022-12-08T03:22:18;11.25;;;4.65;;
22660;SDS011;11497;52.222;21.246;2022-12-08T03:24:48;9.57;;;4.97;;
22660;SDS011;11497;52.222;21.246;2022-12-08T03:27:17;8.82;;;4.78;;
22660;SDS011;11497;52.222;21.246;2022-12-08T03:29:48;9.63;;;4.93;;
22660;SDS011;11497;52.222;21.246;2022-12-08T03:35:07;9.65;;;4.75;;
22660;SDS011;11497;52.222;21.246;2022-12-08T03:37:39;9.05;;;5.10;;
22660;SDS011;11497;52.222;21.246;2022-12-08T03:40:10;7.43;;;4.82;;
22660;SDS011;11497;52.222;21.246;2022-12-08T03:42:41;10.20;;;5.00;;
22660;SDS011;11497;52.222;21.246;2022-12-08T03:45:09;10.35;;;4.65;;
22660;SDS011;11497;52.222;21.246;2022-12-08T03:47:37;11.20;;;5.07;;
22660;SDS011;11497;52.222;21.246;2022-12-08T03:50:05;9.90;;;5.35;;
22660;SDS011;11497;52.222;21.246;2022-12-08T03:52:33;8.77;;;5.20;;
22660;SDS011;11497;52.222;21.246;2022-12-08T03:55:01;9.95;;;5.53;;
22660;SDS011;11497;52.222;21.246;2022-12-08T03:57:29;9.98;;;5.15;;
22660;SDS011;11497;52.222;21.246;2022-12-08T03:59:57;10.18;;;4.85;;
22660;SDS011;11497;52.222;21.246;2022-12-08T04:02:25;7.10;;;5.13;;
22660;SDS011;11497;52.222;21.246;2022-12-08T04:04:53;11.68;;;5.40;;
22660;SDS011;11497;52.222;21.246;2022-12-08T04:07:21;10.70;;;5.10;;
22660;SDS011;11497;52.222;21.246;2022-12-08T04:09:49;9.40;;;4.90;;
22660;SDS011;11497;52.222;21.246;2022-12-08T04:12:16;8.05;;;4.90;;
22660;SDS011;11497;52.222;21.246;2022-12-08T04:14:44;10.77;;;5.20;;
22660;SDS011;11497;52.222;21.246;2022-12-08T04:17:12;10.35;;;5.40;;
22660;SDS011;11497;52.222;21.246;2022-12-08T04:19:40;8.63;;;5.25;;
22660;SDS011;11497;52.222;21.246;2022-12-08T04:22:08;10.15;;;5.45;;
22660;SDS011;11497;52.222;21.246;2022-12-08T04:24:36;10.20;;;5.30;;
22660;SDS011;11497;52.222;21.246;2022-12-08T04:27:04;8.65;;;5.20;;
22660;SDS011;11497;52.222;21.246;2022-12-08T04:29:32;11.68;;;5.63;;
22660;SDS011;11497;52.222;21.246;2022-12-08T04:31:59;11.55;;;5.80;;
22660;SDS011;11497;52.222;21.246;2022-12-08T04:34:27;12.40;;;5.32;;
22660;SDS011;11497;52.222;21.246;2022-12-08T04:36:55;12.05;;;5.50;;
22660;SDS011;11497;52.222;21.246;2022-12-08T04:39:23;12.88;;;6.32;;
22660;SDS011;11497;52.222;21.246;2022-12-08T04:41:51;9.68;;;5.63;;
22660;SDS011;11497;52.222;21.246;2022-12-08T04:44:19;7.97;;;5.60;;
22660;SDS011;11497;52.222;21.246;2022-12-08T04:46:46;11.85;;;6.45;;
22660;SDS011;11497;52.222;21.246;2022-12-08T04:49:14;10.48;;;5.70;;
22660;SDS011;11497;52.222;21.246;2022-12-08T04:51:42;11.20;;;6.57;;
22660;SDS011;11497;52.222;21.246;2022-12-08T04:54:10;10.93;;;6.03;;
22660;SDS011;11497;52.222;21.246;2022-12-08T04:56:38;13.80;;;6.95;;
22660;SDS011;11497;52.222;21.246;2022-12-08T04:59:06;11.43;;;7.00;;
22660;SDS011;11497;52.222;21.246;2022-12-08T05:01:33;12.25;;;7.10;;
22660;SDS011;11497;52.222;21.246;2022-12-08T05:04:01;13.23;;;7.00;;
22660;SDS011;11497;52.222;21.246;2022-12-08T05:06:29;11.23;;;7.25;;
22660;SDS011;11497;52.222;21.246;2022-12-08T05:08:57;14.93;;;7.43;;
22660;SDS011;11497;52.222;21.246;2022-12-08T05:11:25;12.07;;;7.55;;
22660;SDS011;11497;52.222;21.246;2022-12-08T05:13:53;14.02;;;7.00;;
22660;SDS011;11497;52.222;21.246;2022-12-08T05:16:21;11.25;;;6.80;;
22660;SDS011;11497;52.222;21.246;2022-12-08T05:18:49;12.05;;;7.25;;
22660;SDS011;11497;52.222;21.246;2022-12-08T05:21:16;14.27;;;7.60;;
22660;SDS011;11497;52.222;21.246;2022-12-08T05:23:44;13.80;;;7.90;;
22660;SDS011;11497;52.222;21.246;2022-12-08T05:26:12;13.65;;;7.32;;
22660;SDS011;11497;52.222;21.246;2022-12-08T05:28:40;14.40;;;7.70;;
22660;SDS011;11497;52.222;21.246;2022-12-08T05:31:10;15.65;;;7.38;;
22660;SDS011;11497;52.222;21.246;2022-12-08T05:33:39;12.70;;;7.47;;
22660;SDS011;11497;52.222;21.246;2022-12-08T05:36:08;15.07;;;7.68;;
22660;SDS011;11497;52.222;21.246;2022-12-08T05:38:37;12.63;;;7.53;;
22660;SDS011;11497;52.222;21.246;2022-12-08T05:41:06;15.48;;;7.70;;
22660;SDS011;11497;52.222;21.246;2022-12-08T05:43:42;12.57;;;7.55;;
22660;SDS011;11497;52.222;21.246;2022-12-08T05:46:10;12.70;;;7.43;;
22660;SDS011;11497;52.222;21.246;2022-12-08T05:48:39;14.55;;;8.07;;
22660;SDS011;11497;52.222;21.246;2022-12-08T05:51:11;19.88;;;7.82;;
22660;SDS011;11497;52.222;21.246;2022-12-08T05:53:46;13.50;;;7.93;;
22660;SDS011;11497;52.222;21.246;2022-12-08T05:56:14;12.93;;;7.75;;
22660;SDS011;11497;52.222;21.246;2022-12-08T05:58:43;15.82;;;7.95;;
22660;SDS011;11497;52.222;21.246;2022-12-08T06:01:19;14.55;;;8.10;;
22660;SDS011;11497;52.222;21.246;2022-12-08T06:03:51;16.45;;;8.85;;
22660;SDS011;11497;52.222;21.246;2022-12-08T06:06:19;15.85;;;7.80;;
22660;SDS011;11497;52.222;21.246;2022-12-08T06:08:47;15.55;;;8.68;;
22660;SDS011;11497;52.222;21.246;2022-12-08T06:11:18;17.38;;;8.23;;
22660;SDS011;11497;52.222;21.246;2022-12-08T06:13:52;14.60;;;8.05;;
22660;SDS011;11497;52.222;21.246;2022-12-08T06:16:22;15.70;;;7.80;;
22660;SDS011;11497;52.222;21.246;2022-12-08T06:18:52;18.00;;;7.85;;
22660;SDS011;11497;52.222;21.246;2022-12-08T06:21:20;15.60;;;8.85;;
22660;SDS011;11497;52.222;21.246;2022-12-08T06:23:50;13.77;;;8.45;;
22660;SDS011;11497;52.222;21.246;2022-12-08T06:26:19;19.80;;;8.70;;
22660;SDS011;11497;52.222;21.246;2022-12-08T06:28:48;15.15;;;7.95;;
22660;SDS011;11497;52.222;21.246;2022-12-08T06:31:20;18.13;;;8.85;;
22660;SDS011;11497;52.222;21.246;2022-12-08T06:33:50;15.30;;;8.60;;
22660;SDS011;11497;52.222;21.246;2022-12-08T06:36:20;16.05;;;9.32;;
22660;SDS011;11497;52.222;21.246;2022-12-08T06:38:50;21.33;;;8.98;;
22660;SDS011;11497;52.222;21.246;2022-12-08T06:41:17;16.92;;;8.82;;
22660;SDS011;11497;52.222;21.246;2022-12-08T06:43:46;16.77;;;8.85;;
22660;SDS011;11497;52.222;21.246;2022-12-08T06:46:14;16.00;;;9.18;;
22660;SDS011;11497;52.222;21.246;2022-12-08T06:48:45;19.88;;;9.30;;
22660;SDS011;11497;52.222;21.246;2022-12-08T06:51:17;18.48;;;9.13;;
22660;SDS011;11497;52.222;21.246;2022-12-08T06:53:48;17.92;;;9.27;;
22660;SDS011;11497;52.222;21.246;2022-12-08T06:56:16;20.88;;;9.80;;
22660;SDS011;11497;52.222;21.246;2022-12-08T06:58:46;19.20;;;9.13;;
22660;SDS011;11497;52.222;21.246;2022-12-08T07:01:18;15.98;;;8.90;;
22660;SDS011;11497;52.222;21.246;2022-12-08T07:03:46;17.58;;;9.43;;
22660;SDS011;11497;52.222;21.246;2022-12-08T07:06:15;22.65;;;9.40;;
22660;SDS011;11497;52.222;21.246;2022-12-08T07:08:47;15.60;;;9.43;;
22660;SDS011;11497;52.222;21.246;2022-12-08T07:11:15;20.17;;;10.40;;
22660;SDS011;11497;52.222;21.246;2022-12-08T07:13:48;21.10;;;9.43;;
22660;SDS011;11497;52.222;21.246;2022-12-08T07:16:16;17.52;;;9.43;;
22660;SDS011;11497;52.222;21.246;2022-12-08T07:18:44;17.92;;;9.32;;
22660;SDS011;11497;52.222;21.246;2022-12-08T07:21:12;20.08;;;9.88;;
22660;SDS011;11497;52.222;21.246;2022-12-08T07:23:41;21.33;;;9.57;;
22660;SDS011;11497;52.222;21.246;2022-12-08T07:26:22;20.10;;;10.07;;
22660;SDS011;11497;52.222;21.246;2022-12-08T07:28:51;19.55;;;9.82;;
22660;SDS011;11497;52.222;21.246;2022-12-08T07:31:20;26.05;;;10.27;;
22660;SDS011;11497;52.222;21.246;2022-12-08T07:33:50;19.58;;;9.95;;
22660;SDS011;11497;52.222;21.246;2022-12-08T07:36:18;20.88;;;11.23;;
22660;SDS011;11497;52.222;21.246;2022-12-08T07:38:47;24.45;;;11.13;;
22660;SDS011;11497;52.222;21.246;2022-12-08T07:41:16;23.30;;;11.35;;
22660;SDS011;11497;52.222;21.246;2022-12-08T07:43:48;17.58;;;9.75;;
22660;SDS011;11497;52.222;21.246;2022-12-08T07:46:17;20.50;;;11.10;;
22660;SDS011;11497;52.222;21.246;2022-12-08T07:48:47;20.33;;;10.48;;
22660;SDS011;11497;52.222;21.246;2022-12-08T07:51:15;21.75;;;10.77;;
22660;SDS011;11497;52.222;21.246;2022-12-08T07:53:44;16.58;;;10.02;;
22660;SDS011;11497;52.222;21.246;2022-12-08T07:56:20;19.00;;;10.48;;
22660;SDS011;11497;52.222;21.246;2022-12-08T07:58:48;17.83;;;10.70;;
22660;SDS011;11497;52.222;21.246;2022-12-08T08:01:26;18.23;;;10.38;;
22660;SDS011;11497;52.222;21.246;2022-12-08T08:03:57;23.08;;;10.45;;
22660;SDS011;11497;52.222;21.246;2022-12-08T08:06:30;19.25;;;10.77;;
22660;SDS011;11497;52.222;21.246;2022-12-08T08:08:59;18.58;;;10.65;;
22660;SDS011;11497;52.222;21.246;2022-12-08T08:11:27;21.50;;;12.43;;
22660;SDS011;11497;52.222;21.246;2022-12-08T08:13:55;18.50;;;11.07;;
22660;SDS011;11497;52.222;21.246;2022-12-08T08:16:23;20.30;;;11.00;;
22660;SDS011;11497;52.222;21.246;2022-12-08T08:18:51;17.10;;;10.50;;
22660;SDS011;11497;52.222;21.246;2022-12-08T08:21:19;17.50;;;9.73;;
22660;SDS011;11497;52.222;21.246;2022-12-08T08:24:07;16.95;;;10.00;;
22660;SDS011;11497;52.222;21.246;2022-12-08T08:26:36;20.15;;;11.27;;
22660;SDS011;11497;52.222;21.246;2022-12-08T08:29:04;17.77;;;10.63;;
22660;SDS011;11497;52.222;21.246;2022-12-08T08:31:32;24.52;;;10.60;;
22660;SDS011;11497;52.222;21.246;2022-12-08T08:34:00;24.33;;;10.50;;
22660;SDS011;11497;52.222;21.246;2022-12-08T08:36:32;19.50;;;10.38;;
22660;SDS011;11497;52.222;21.246;2022-12-08T08:39:00;19.40;;;9.73;;
22660;SDS011;11497;52.222;21.246;2022-12-08T08:41:28;19.08;;;10.38;;
22660;SDS011;11497;52.222;21.246;2022-12-08T08:43:56;20.13;;;9.82;;
22660;SDS011;11497;52.222;21.246;2022-12-08T08:46:24;19.13;;;10.02;;
22660;SDS011;11497;52.222;21.246;2022-12-08T08:48:52;17.30;;;9.80;;
22660;SDS011;11497;52.222;21.246;2022-12-08T08:51:21;23.13;;;11.13;;
22660;SDS011;11497;52.222;21.246;2022-12-08T08:53:49;20.05;;;10.73;;
22660;SDS011;11497;52.222;21.246;2022-12-08T08:56:17;22.95;;;10.77;;
22660;SDS011;11497;52.222;21.246;2022-12-08T08:58:47;21.45;;;10.15;;
22660;SDS011;11497;52.222;21.246;2022-12-08T09:01:21;17.42;;;10.10;;
22660;SDS011;11497;52.222;21.246;2022-12-08T09:03:51;18.08;;;9.77;;
22660;SDS011;11497;52.222;21.246;2022-12-08T09:06:20;19.88;;;9.75;;
22660;SDS011;11497;52.222;21.246;2022-12-08T09:08:49;17.48;;;9.93;;
22660;SDS011;11497;52.222;21.246;2022-12-08T09:11:17;17.83;;;9.40;;
22660;SDS011;11497;52.222;21.246;2022-12-08T09:13:46;14.43;;;8.73;;
22660;SDS011;11497;52.222;21.246;2022-12-08T09:16:15;18.40;;;9.45;;
22660;SDS011;11497;52.222;21.246;2022-12-08T09:18:44;16.02;;;9.20;;
22660;SDS011;11497;52.222;21.246;2022-12-08T09:21:15;17.52;;;10.13;;
22660;SDS011;11497;52.222;21.246;2022-12-08T09:23:49;15.45;;;9.50;;
22660;SDS011;11497;52.222;21.246;2022-12-08T09:26:19;19.02;;;9.98;;
22660;SDS011;11497;52.222;21.246;2022-12-08T09:28:52;21.17;;;10.50;;
22660;SDS011;11497;52.222;21.246;2022-12-08T09:31:21;19.05;;;10.07;;
22660;SDS011;11497;52.222;21.246;2022-12-08T09:33:51;19.23;;;10.13;;
22660;SDS011;11497;52.222;21.246;2022-12-08T09:36:19;16.88;;;9.98;;
22660;SDS011;11497;52.222;21.246;2022-12-08T09:38:47;15.98;;;9.95;;
22660;SDS011;11497;52.222;21.246;2022-12-08T09:41:19;20.67;;;10.63;;
22660;SDS011;11497;52.222;21.246;2022-12-08T09:47:22;18.85;;;10.55;;
22660;SDS011;11497;52.222;21.246;2022-12-08T09:50:04;17.67;;;11.18;;
22660;SDS011;11497;52.222;21.246;2022-12-08T09:53:13;21.58;;;11.18;;
22660;SDS011;11497;52.222;21.246;2022-12-08T09:55:59;18.38;;;10.48;;
22660;SDS011;11497;52.222;21.246;2022-12-08T10:01:21;20.25;;;11.07;;
22660;SDS011;11497;52.222;21.246;2022-12-08T10:03:53;22.27;;;11.63;;
22660;SDS011;11497;52.222;21.246;2022-12-08T10:06:32;18.50;;;10.35;;
22660;SDS011;11497;52.222;21.246;2022-12-08T10:14:41;17.98;;;11.07;;
22660;SDS011;11497;52.222;21.246;2022-12-08T10:17:17;19.52;;;11.05;;
22660;SDS011;11497;52.222;21.246;2022-12-08T10:19:56;19.77;;;11.27;;
22660;SDS011;11497;52.222;21.246;2022-12-08T10:22:36;20.90;;;11.30;;
22660;SDS011;11497;52.222;21.246;2022-12-08T10:27:45;21.25;;;12.00;;
22660;SDS011;11497;52.222;21.246;2022-12-08T10:30:17;26.02;;;12.25;;
22660;SDS011;11497;52.222;21.246;2022-12-08T10:32:49;23.15;;;12.30;;
22660;SDS011;11497;52.222;21.246;2022-12-08T10:35:19;21.85;;;12.32;;
22660;SDS011;11497;52.222;21.246;2022-12-08T10:37:59;24.45;;;13.68;;
22660;SDS011;11497;52.222;21.246;2022-12-08T10:40:33;20.85;;;12.63;;
22660;SDS011;11497;52.222;21.246;2022-12-08T10:43:12;25.08;;;13.13;;
22660;SDS011;11497;52.222;21.246;2022-12-08T10:45:48;23.17;;;13.40;;
22660;SDS011;11497;52.222;21.246;2022-12-08T10:48:18;24.65;;;13.88;;
22660;SDS011;11497;52.222;21.246;2022-12-08T10:55:51;25.05;;;13.50;;
22660;SDS011;11497;52.222;21.246;2022-12-08T10:58:30;24.98;;;13.93;;
22660;SDS011;11497;52.222;21.246;2022-12-08T11:03:58;26.23;;;14.70;;
22660;SDS011;11497;52.222;21.246;2022-12-08T11:09:02;26.88;;;14.00;;
22660;SDS011;11497;52.222;21.246;2022-12-08T11:11:37;25.20;;;14.82;;
22660;SDS011;11497;52.222;21.246;2022-12-08T11:17:11;22.58;;;14.27;;
22660;SDS011;11497;52.222;21.246;2022-12-08T11:19:42;27.02;;;15.07;;
22660;SDS011;11497;52.222;21.246;2022-12-08T11:24:56;27.17;;;14.93;;
22660;SDS011;11497;52.222;21.246;2022-12-08T11:27:26;27.63;;;16.38;;
22660;SDS011;11497;52.222;21.246;2022-12-08T11:29:54;29.55;;;17.05;;
22660;SDS011;11497;52.222;21.246;2022-12-08T11:32:22;33.75;;;16.40;;
22660;SDS011;11497;52.222;21.246;2022-12-08T11:37:39;33.10;;;18.47;;
22660;SDS011;11497;52.222;21.246;2022-12-08T11:40:13;31.83;;;18.25;;
22660;SDS011;11497;52.222;21.246;2022-12-08T11:45:44;33.38;;;18.90;;
22660;SDS011;11497;52.222;21.246;2022-12-08T11:48:43;35.90;;;19.55;;
22660;SDS011;11497;52.222;21.246;2022-12-08T11:56:33;35.95;;;20.48;;
22660;SDS011;11497;52.222;21.246;2022-12-08T12:02:01;39.50;;;21.67;;
22660;SDS011;11497;52.222;21.246;2022-12-08T12:04:36;35.97;;;20.58;;
22660;SDS011;11497;52.222;21.246;2022-12-08T12:16:09;42.33;;;21.45;;
22660;SDS011;11497;52.222;21.246;2022-12-08T12:18:58;39.35;;;22.30;;
22660;SDS011;11497;52.222;21.246;2022-12-08T12:24:06;47.78;;;22.30;;
22660;SDS011;11497;52.222;21.246;2022-12-08T12:26:57;43.47;;;22.65;;
22660;SDS011;11497;52.222;21.246;2022-12-08T12:29:27;40.13;;;22.98;;
22660;SDS011;11497;52.222;21.246;2022-12-08T12:31:59;38.15;;;21.67;;
22660;SDS011;11497;52.222;21.246;2022-12-08T12:34:34;37.83;;;20.63;;
22660;SDS011;11497;52.222;21.246;2022-12-08T12:39:55;41.65;;;22.40;;
22660;SDS011;11497;52.222;21.246;2022-12-08T12:47:44;43.08;;;21.77;;
22660;SDS011;11497;52.222;21.246;2022-12-08T13:04:06;34.95;;;19.13;;
22660;SDS011;11497;52.222;21.246;2022-12-08T13:06:40;38.53;;;20.27;;
22660;SDS011;11497;52.222;21.246;2022-12-08T13:09:27;37.70;;;20.50;;
22660;SDS011;11497;52.222;21.246;2022-12-08T13:12:16;38.08;;;19.83;;
22660;SDS011;11497;52.222;21.246;2022-12-08T13:14:49;39.83;;;20.70;;
22660;SDS011;11497;52.222;21.246;2022-12-08T13:17:25;39.13;;;21.08;;
22660;SDS011;11497;52.222;21.246;2022-12-08T13:19:59;35.97;;;18.65;;
22660;SDS011;11497;52.222;21.246;2022-12-08T13:28:24;42.75;;;20.55;;
22660;SDS011;11497;52.222;21.246;2022-12-08T13:30:57;35.63;;;20.65;;
22660;SDS011;11497;52.222;21.246;2022-12-08T13:33:30;36.72;;;19.80;;
22660;SDS011;11497;52.222;21.246;2022-12-08T13:36:13;42.70;;;20.95;;
22660;SDS011;11497;52.222;21.246;2022-12-08T13:38:47;39.75;;;21.42;;
22660;SDS011;11497;52.222;21.246;2022-12-08T13:41:21;40.35;;;20.63;;
22660;SDS011;11497;52.222;21.246;2022-12-08T13:44:30;43.38;;;21.85;;
22660;SDS011;11497;52.222;21.246;2022-12-08T13:47:47;38.38;;;21.77;;
22660;SDS011;11497;52.222;21.246;2022-12-08T13:50:45;44.47;;;21.95;;
22660;SDS011;11497;52.222;21.246;2022-12-08T13:57:04;42.47;;;20.77;;
22660;SDS011;11497;52.222;21.246;2022-12-08T13:59:41;36.65;;;20.38;;
22660;SDS011;11497;52.222;21.246;2022-12-08T14:04:43;39.95;;;21.75;;
22660;SDS011;11497;52.222;21.246;2022-12-08T14:07:33;41.10;;;21.48;;
22660;SDS011;11497;52.222;21.246;2022-12-08T14:10:02;38.20;;;21.45;;
22660;SDS011;11497;52.222;21.246;2022-12-08T14:12:33;43.13;;;22.27;;
22660;SDS011;11497;52.222;21.246;2022-12-08T14:15:03;39.85;;;21.42;;
22660;SDS011;11497;52.222;21.246;2022-12-08T14:17:32;39.63;;;21.25;;
22660;SDS011;11497;52.222;21.246;2022-12-08T14:20:05;39.75;;;21.55;;
22660;SDS011;11497;52.222;21.246;2022-12-08T14:22:54;44.40;;;22.65;;
22660;SDS011;11497;52.222;21.246;2022-12-08T14:25:25;45.13;;;22.10;;
22660;SDS011;11497;52.222;21.246;2022-12-08T14:27:55;46.47;;;23.02;;
22660;SDS011;11497;52.222;21.246;2022-12-08T14:30:27;44.55;;;21.67;;
22660;SDS011;11497;52.222;21.246;2022-12-08T14:32:59;45.10;;;20.88;;
22660;SDS011;11497;52.222;21.246;2022-12-08T14:35:36;43.28;;;22.13;;
22660;SDS011;11497;52.222;21.246;2022-12-08T14:38:08;46.22;;;22.38;;
22660;SDS011;11497;52.222;21.246;2022-12-08T14:40:42;43.92;;;21.05;;
22660;SDS011;11497;52.222;21.246;2022-12-08T14:48:18;42.72;;;22.80;;
22660;SDS011;11497;52.222;21.246;2022-12-08T14:53:58;42.72;;;21.02;;
22660;SDS011;11497;52.222;21.246;2022-12-08T14:59:14;45.50;;;22.13;;
22660;SDS011;11497;52.222;21.246;2022-12-08T15:01:49;39.72;;;20.13;;
22660;SDS011;11497;52.222;21.246;2022-12-08T15:04:24;43.45;;;21.67;;
22660;SDS011;11497;52.222;21.246;2022-12-08T15:07:04;42.80;;;22.75;;
22660;SDS011;11497;52.222;21.246;2022-12-08T15:14:39;40.83;;;21.33;;
22660;SDS011;11497;52.222;21.246;2022-12-08T15:17:29;40.10;;;20.92;;
22660;SDS011;11497;52.222;21.246;2022-12-08T15:20:01;42.17;;;21.85;;
22660;SDS011;11497;52.222;21.246;2022-12-08T15:22:30;45.03;;;22.05;;
22660;SDS011;11497;52.222;21.246;2022-12-08T15:24:59;45.28;;;22.25;;
22660;SDS011;11497;52.222;21.246;2022-12-08T15:27:27;44.70;;;21.35;;
22660;SDS011;11497;52.222;21.246;2022-12-08T15:29:55;46.08;;;21.63;;
22660;SDS011;11497;52.222;21.246;2022-12-08T15:32:23;38.00;;;20.80;;
22660;SDS011;11497;52.222;21.246;2022-12-08T15:34:51;42.30;;;21.98;;
22660;SDS011;11497;52.222;21.246;2022-12-08T15:37:19;35.17;;;19.35;;
22660;SDS011;11497;52.222;21.246;2022-12-08T15:39:49;41.72;;;21.40;;
22660;SDS011;11497;52.222;21.246;2022-12-08T15:42:17;36.95;;;19.13;;
22660;SDS011;11497;52.222;21.246;2022-12-08T15:44:45;38.50;;;20.75;;
22660;SDS011;11497;52.222;21.246;2022-12-08T15:47:14;39.40;;;20.42;;
22660;SDS011;11497;52.222;21.246;2022-12-08T15:49:50;33.75;;;17.00;;
22660;SDS011;11497;52.222;21.246;2022-12-08T15:52:19;38.38;;;20.52;;
22660;SDS011;11497;52.222;21.246;2022-12-08T15:54:49;38.17;;;21.10;;
22660;SDS011;11497;52.222;21.246;2022-12-08T15:57:24;37.95;;;20.23;;
22660;SDS011;11497;52.222;21.246;2022-12-08T16:03:23;37.63;;;19.17;;
22660;SDS011;11497;52.222;21.246;2022-12-08T16:06:18;39.22;;;20.73;;
22660;SDS011;11497;52.222;21.246;2022-12-08T16:09:49;40.05;;;19.42;;
22660;SDS011;11497;52.222;21.246;2022-12-08T16:12:18;42.58;;;20.05;;
22660;SDS011;11497;52.222;21.246;2022-12-08T16:15:26;41.50;;;20.30;;
22660;SDS011;11497;52.222;21.246;2022-12-08T16:18:15;40.80;;;20.17;;
22660;SDS011;11497;52.222;21.246;2022-12-08T16:20:51;40.47;;;19.48;;
22660;SDS011;11497;52.222;21.246;2022-12-08T16:23:39;36.90;;;20.30;;
22660;SDS011;11497;52.222;21.246;2022-12-08T16:26:20;41.90;;;21.75;;
22660;SDS011;11497;52.222;21.246;2022-12-08T16:29:15;41.38;;;22.05;;
22660;SDS011;11497;52.222;21.246;2022-12-08T16:31:46;42.30;;;21.38;;
22660;SDS011;11497;52.222;21.246;2022-12-08T16:34:14;46.55;;;22.83;;
22660;SDS011;11497;52.222;21.246;2022-12-08T16:36:42;45.50;;;23.27;;
22660;SDS011;11497;52.222;21.246;2022-12-08T16:39:11;48.58;;;23.08;;
22660;SDS011;11497;52.222;21.246;2022-12-08T16:41:40;45.58;;;24.33;;
22660;SDS011;11497;52.222;21.246;2022-12-08T16:44:26;46.00;;;24.65;;
22660;SDS011;11497;52.222;21.246;2022-12-08T16:46:54;43.00;;;20.23;;
22660;SDS011;11497;52.222;21.246;2022-12-08T16:49:22;53.28;;;25.63;;
22660;SDS011;11497;52.222;21.246;2022-12-08T16:51:50;51.95;;;25.88;;
22660;SDS011;11497;52.222;21.246;2022-12-08T16:54:19;48.88;;;25.98;;
22660;SDS011;11497;52.222;21.246;2022-12-08T16:56:46;52.90;;;27.33;;
22660;SDS011;11497;52.222;21.246;2022-12-08T16:59:14;55.97;;;27.48;;
22660;SDS011;11497;52.222;21.246;2022-12-08T17:01:42;54.22;;;25.73;;
22660;SDS011;11497;52.222;21.246;2022-12-08T17:04:11;46.28;;;24.83;;
22660;SDS011;11497;52.222;21.246;2022-12-08T17:06:57;50.00;;;25.60;;
22660;SDS011;11497;52.222;21.246;2022-12-08T17:09:25;51.22;;;26.60;;
22660;SDS011;11497;52.222;21.246;2022-12-08T17:11:54;54.50;;;25.98;;
22660;SDS011;11497;52.222;21.246;2022-12-08T17:14:31;50.40;;;24.48;;
22660;SDS011;11497;52.222;21.246;2022-12-08T17:17:00;51.78;;;27.02;;
22660;SDS011;11497;52.222;21.246;2022-12-08T17:19:28;55.10;;;28.05;;
22660;SDS011;11497;52.222;21.246;2022-12-08T17:21:56;56.22;;;27.77;;
22660;SDS011;11497;52.222;21.246;2022-12-08T17:24:24;54.78;;;29.70;;
22660;SDS011;11497;52.222;21.246;2022-12-08T17:26:55;56.55;;;28.58;;